createdAt,value
2023-02-16T00:01:28.452Z,12.68
2023-02-16T00:03:57.927Z,12.57
2023-02-16T00:06:26.984Z,12.13
2023-02-16T00:08:58.122Z,11.35
2023-02-16T00:11:49.080Z,12.23
2023-02-16T00:14:17.682Z,11.98
2023-02-16T00:16:45.945Z,11.60
2023-02-16T00:19:20.632Z,11.40
2023-02-16T00:21:49.255Z,12.00
2023-02-16T00:24:19.310Z,12.57
2023-02-16T00:26:48.233Z,12.57
2023-02-16T00:29:21.492Z,11.90
2023-02-16T00:31:50.431Z,11.10
2023-02-16T00:34:28.193Z,11.20
2023-02-16T00:36:57.911Z,11.70
2023-02-16T00:39:27.979Z,11.70
2023-02-16T00:41:58.593Z,11.57
2023-02-16T00:44:33.052Z,12.63
2023-02-16T00:47:04.346Z,12.00
2023-02-16T00:49:32.707Z,12.73
2023-02-16T00:52:00.944Z,11.57
2023-02-16T00:54:31.864Z,11.10
2023-02-16T00:57:00.592Z,10.53
2023-02-16T00:59:28.820Z,11.15
2023-02-16T01:01:58.344Z,11.43
2023-02-16T01:04:26.698Z,11.40
2023-02-16T01:07:12.376Z,10.80
2023-02-16T01:10:11.085Z,11.60
2023-02-16T01:12:39.407Z,10.02
2023-02-16T01:15:13.377Z,10.68
2023-02-16T01:17:41.690Z,10.43
2023-02-16T01:20:15.958Z,11.77
2023-02-16T01:22:44.381Z,10.70
2023-02-16T01:25:14.450Z,11.40
2023-02-16T01:27:43.512Z,13.45
2023-02-16T01:30:17.571Z,12.30
2023-02-16T01:32:51.342Z,11.77
2023-02-16T01:35:20.535Z,10.90
2023-02-16T01:37:48.880Z,11.77
2023-02-16T01:40:32.386Z,12.23
2023-02-16T01:43:07.997Z,11.40
2023-02-16T01:45:38.972Z,11.47
2023-02-16T01:48:14.972Z,11.75
2023-02-16T01:50:50.545Z,11.90
2023-02-16T01:53:23.260Z,11.50
2023-02-16T01:55:59.296Z,10.82
2023-02-16T01:58:35.568Z,11.50
2023-02-16T02:01:38.893Z,11.68
2023-02-16T02:04:39.080Z,10.63
2023-02-16T02:07:07.342Z,11.10
2023-02-16T02:09:41.415Z,10.80
2023-02-16T02:12:19.633Z,11.77
2023-02-16T02:14:49.191Z,11.13
2023-02-16T02:17:21.774Z,11.25
2023-02-16T02:19:58.902Z,10.90
2023-02-16T02:23:30.010Z,11.00
2023-02-16T02:26:44.966Z,10.60
2023-02-16T02:29:37.338Z,9.80
2023-02-16T02:32:15.740Z,10.98
2023-02-16T02:34:59.551Z,10.70
2023-02-16T02:37:40.997Z,10.90
2023-02-16T02:40:16.638Z,10.57
2023-02-16T02:42:52.997Z,10.80
2023-02-16T02:45:27.713Z,10.90
2023-02-16T02:47:56.109Z,11.90
2023-02-16T02:50:39.241Z,10.07
2023-02-16T02:53:14.796Z,10.70
2023-02-16T02:56:05.782Z,10.15
2023-02-16T02:58:53.601Z,10.38
2023-02-16T03:01:24.521Z,10.80
2023-02-16T03:03:58.080Z,10.65
2023-02-16T03:06:29.809Z,10.70
2023-02-16T03:09:03.592Z,10.20
2023-02-16T03:11:49.434Z,11.70
2023-02-16T03:14:21.495Z,10.75
2023-02-16T03:17:12.283Z,10.82
2023-02-16T03:20:00.508Z,11.23
2023-02-16T03:22:46.920Z,11.10
2023-02-16T03:25:33.499Z,11.20
2023-02-16T03:28:22.929Z,10.83
2023-02-16T03:30:52.403Z,11.80
2023-02-16T03:33:22.985Z,12.10
2023-02-16T03:35:52.380Z,11.50
2023-02-16T03:38:20.845Z,11.48
2023-02-16T03:40:51.363Z,10.60
2023-02-16T03:43:19.942Z,11.25
2023-02-16T03:45:48.194Z,10.75
2023-02-16T03:48:16.443Z,10.77
2023-02-16T03:50:46.047Z,10.60
2023-02-16T03:53:14.896Z,10.77
2023-02-16T03:55:46.515Z,10.35
2023-02-16T03:58:16.662Z,10.63
2023-02-16T04:00:45.191Z,10.57
2023-02-16T04:03:13.944Z,10.90
2023-02-16T04:05:42.834Z,11.23
2023-02-16T04:08:12.545Z,10.95
2023-02-16T04:10:41.007Z,11.18
2023-02-16T04:13:08.722Z,9.93
2023-02-16T04:15:37.210Z,11.45
2023-02-16T04:18:05.601Z,11.30
2023-02-16T04:20:35.544Z,11.20
2023-02-16T04:23:04.332Z,11.02
2023-02-16T04:25:34.020Z,10.57
2023-02-16T04:28:02.535Z,10.63
2023-02-16T04:30:32.482Z,11.55
2023-02-16T04:33:00.924Z,10.70
2023-02-16T04:35:29.157Z,10.80
2023-02-16T04:37:57.521Z,11.17
2023-02-16T04:40:25.717Z,11.00
2023-02-16T04:42:55.354Z,10.80
2023-02-16T04:45:23.610Z,10.73
2023-02-16T04:47:51.920Z,11.02
2023-02-16T04:50:20.400Z,11.95
2023-02-16T04:52:48.636Z,11.55
2023-02-16T04:55:16.954Z,10.98
2023-02-16T04:57:45.279Z,10.98
2023-02-16T05:00:15.851Z,11.48
2023-02-16T05:02:44.132Z,11.50
2023-02-16T05:05:12.301Z,11.63
2023-02-16T05:07:40.674Z,10.93
2023-02-16T05:10:09.640Z,11.45
2023-02-16T05:12:55.176Z,11.65
2023-02-16T05:15:25.226Z,11.35
2023-02-16T05:17:53.575Z,10.93
2023-02-16T05:20:42.541Z,12.05
2023-02-16T05:23:10.823Z,11.10
2023-02-16T05:25:39.034Z,10.80
2023-02-16T05:28:07.372Z,11.55
2023-02-16T05:30:37.010Z,11.52
2023-02-16T05:33:05.304Z,11.20
2023-02-16T05:35:35.266Z,11.70
2023-02-16T05:38:03.496Z,11.45
2023-02-16T05:40:31.906Z,11.10
2023-02-16T05:43:00.100Z,10.60
2023-02-16T05:45:28.414Z,13.05
2023-02-16T05:47:57.949Z,11.25
2023-02-16T05:50:26.155Z,11.50
2023-02-16T05:52:54.388Z,12.00
2023-02-16T05:55:22.839Z,12.10
2023-02-16T05:57:51.142Z,11.60
2023-02-16T06:00:19.896Z,11.75
2023-02-16T06:02:48.328Z,11.90
2023-02-16T06:05:18.342Z,11.15
2023-02-16T06:07:46.724Z,11.60
2023-02-16T06:10:16.310Z,12.27
2023-02-16T06:12:44.911Z,11.32
2023-02-16T06:15:13.489Z,11.60
2023-02-16T06:17:44.628Z,12.38
2023-02-16T06:20:13.442Z,11.68
2023-02-16T06:22:43.077Z,12.02
2023-02-16T06:25:11.315Z,11.93
2023-02-16T06:27:39.563Z,10.95
2023-02-16T06:30:09.711Z,11.43
2023-02-16T06:32:37.931Z,11.55
2023-02-16T06:35:06.690Z,10.95
2023-02-16T06:37:34.997Z,11.47
2023-02-16T06:40:04.809Z,11.50
2023-02-16T06:42:33.478Z,11.77
2023-02-16T06:45:01.703Z,12.52
2023-02-16T06:47:29.920Z,11.30
2023-02-16T06:49:58.178Z,11.10
2023-02-16T06:52:26.624Z,13.23
2023-02-16T06:54:54.842Z,11.90
2023-02-16T06:57:24.843Z,12.67
2023-02-16T06:59:53.064Z,12.35
2023-02-16T07:02:21.369Z,12.30
2023-02-16T07:04:49.628Z,12.50
2023-02-16T07:07:17.868Z,12.20
2023-02-16T07:09:47.571Z,12.48
2023-02-16T07:12:15.828Z,13.07
2023-02-16T07:14:45.478Z,13.35
2023-02-16T07:17:13.858Z,13.52
2023-02-16T07:19:42.584Z,12.18
2023-02-16T07:22:10.760Z,13.55
2023-02-16T07:24:38.981Z,13.70
2023-02-16T07:27:08.706Z,13.05
2023-02-16T07:29:36.961Z,12.98
2023-02-16T07:32:06.883Z,12.55
2023-02-16T07:34:35.210Z,12.63
2023-02-16T07:37:03.508Z,12.27
2023-02-16T07:39:32.102Z,12.07
2023-02-16T07:42:00.356Z,12.68
2023-02-16T07:44:28.926Z,12.67
2023-02-16T07:46:57.337Z,12.90
2023-02-16T07:49:26.930Z,12.90
2023-02-16T07:51:55.201Z,13.63
2023-02-16T07:54:23.429Z,13.37
2023-02-16T07:56:51.714Z,12.83
2023-02-16T07:59:20.105Z,12.07
2023-02-16T08:01:48.391Z,12.23
2023-02-16T08:04:16.730Z,11.38
2023-02-16T08:06:48.609Z,10.85
2023-02-16T08:09:16.955Z,12.17
2023-02-16T08:11:45.303Z,11.90
2023-02-16T08:14:13.506Z,12.68
2023-02-16T08:16:41.883Z,12.60
2023-02-16T08:19:12.089Z,13.00
2023-02-16T08:21:40.550Z,13.10
2023-02-16T08:24:13.716Z,12.07
2023-02-16T08:26:44.799Z,12.77
2023-02-16T08:29:14.819Z,13.52
2023-02-16T08:31:43.464Z,13.90
2023-02-16T08:34:11.893Z,13.52
2023-02-16T08:36:40.997Z,14.00
2023-02-16T08:39:15.056Z,13.45
2023-02-16T08:41:45.441Z,14.05
2023-02-16T08:44:15.571Z,13.98
2023-02-16T08:46:45.831Z,14.10
2023-02-16T08:49:14.578Z,14.00
2023-02-16T08:51:46.067Z,13.32
2023-02-16T08:54:19.096Z,13.82
2023-02-16T08:56:49.542Z,13.85
2023-02-16T08:59:19.744Z,13.10
2023-02-16T09:01:48.199Z,13.52
2023-02-16T09:04:17.579Z,13.98
2023-02-16T09:06:48.393Z,14.13
2023-02-16T09:09:18.507Z,13.88
2023-02-16T09:11:47.088Z,13.93
2023-02-16T09:14:16.330Z,14.85
2023-02-16T09:16:46.508Z,14.13
2023-02-16T09:19:16.239Z,13.75
2023-02-16T09:21:45.205Z,15.23
2023-02-16T09:24:13.668Z,14.15
2023-02-16T09:26:44.734Z,13.88
2023-02-16T09:29:14.103Z,12.98
2023-02-16T09:31:44.303Z,11.80
2023-02-16T09:34:17.735Z,12.07
2023-02-16T09:36:47.220Z,11.98
2023-02-16T09:39:16.644Z,11.73
2023-02-16T09:42:03.324Z,11.27
2023-02-16T09:44:41.726Z,11.10
2023-02-16T09:47:18.853Z,10.70
2023-02-16T09:49:48.540Z,13.63
2023-02-16T09:52:25.074Z,11.20
2023-02-16T09:54:55.146Z,10.30
2023-02-16T09:57:37.810Z,10.70
2023-02-16T10:00:16.301Z,10.20
2023-02-16T10:02:52.234Z,9.80
2023-02-16T10:05:27.488Z,10.07
2023-02-16T10:08:02.974Z,10.18
2023-02-16T10:10:40.269Z,9.88
2023-02-16T10:13:17.977Z,9.80
2023-02-16T10:15:48.460Z,10.00
2023-02-16T10:18:23.529Z,9.80
2023-02-16T10:20:55.411Z,10.40
2023-02-16T10:23:45.318Z,10.10
2023-02-16T10:26:22.931Z,9.55
2023-02-16T10:28:55.468Z,9.90
2023-02-16T10:31:32.992Z,10.10
2023-02-16T10:34:23.327Z,10.00
2023-02-16T10:37:14.836Z,10.18
2023-02-16T10:39:49.180Z,10.60
2023-02-16T10:42:24.924Z,10.30
2023-02-16T10:45:01.315Z,10.07
2023-02-16T10:47:35.795Z,10.03
2023-02-16T10:50:04.384Z,9.50
2023-02-16T10:52:37.204Z,10.63
2023-02-16T10:55:05.842Z,10.20
2023-02-16T10:57:34.660Z,10.05
2023-02-16T11:00:11.613Z,10.20
2023-02-16T11:02:43.606Z,10.13
2023-02-16T11:05:34.553Z,10.30
2023-02-16T11:08:03.676Z,10.35
2023-02-16T11:10:48.804Z,10.00
2023-02-16T11:13:28.351Z,10.10
2023-02-16T11:16:01.623Z,10.75
2023-02-16T11:18:34.707Z,10.77
2023-02-16T11:21:04.142Z,11.18
2023-02-16T11:23:34.921Z,10.68
2023-02-16T11:26:06.491Z,10.32
2023-02-16T11:28:37.185Z,10.77
2023-02-16T11:31:19.695Z,10.15
2023-02-16T11:34:01.111Z,10.70
2023-02-16T11:36:34.001Z,10.57
2023-02-16T11:39:06.925Z,10.50
2023-02-16T11:41:36.750Z,10.32
2023-02-16T11:44:05.523Z,10.70
2023-02-16T11:46:41.934Z,10.07
2023-02-16T11:49:30.415Z,10.40
2023-02-16T11:51:58.709Z,10.13
2023-02-16T11:54:27.631Z,10.50
2023-02-16T11:57:09.332Z,11.32
2023-02-16T11:59:39.118Z,12.15
2023-02-16T12:02:46.432Z,11.80
2023-02-16T12:05:28.045Z,11.90
2023-02-16T12:08:14.564Z,11.05
2023-02-16T12:11:03.116Z,11.10
2023-02-16T12:13:39.285Z,12.20
2023-02-16T12:16:19.465Z,13.30
2023-02-16T12:19:09.559Z,12.00
2023-02-16T12:21:42.326Z,11.95
2023-02-16T12:24:23.001Z,12.27
2023-02-16T12:26:53.801Z,12.60
2023-02-16T12:29:45.098Z,12.32
2023-02-16T12:32:30.225Z,13.18
2023-02-16T12:35:19.462Z,13.27
2023-02-16T12:37:56.583Z,13.10
2023-02-16T12:40:37.025Z,13.55
2023-02-16T12:43:23.549Z,13.40
2023-02-16T12:45:54.204Z,12.60
2023-02-16T12:48:36.914Z,12.98
2023-02-16T12:51:11.945Z,13.40
2023-02-16T12:53:46.344Z,13.00
2023-02-16T12:56:20.225Z,12.40
2023-02-16T12:58:55.399Z,13.07
2023-02-16T13:01:26.870Z,12.90
2023-02-16T13:03:58.928Z,12.95
2023-02-16T13:06:34.008Z,12.93
2023-02-16T13:09:18.325Z,12.93
2023-02-16T13:11:51.642Z,12.17
2023-02-16T13:14:24.613Z,12.77
2023-02-16T13:16:56.975Z,12.95
2023-02-16T13:19:25.264Z,14.80
2023-02-16T13:22:10.481Z,13.40
2023-02-16T13:24:51.779Z,13.55
2023-02-16T13:27:33.462Z,13.07
2023-02-16T13:30:36.092Z,12.45
2023-02-16T13:33:29.511Z,12.55
2023-02-16T13:36:21.451Z,13.00
2023-02-16T13:39:40.309Z,13.32
2023-02-16T13:42:53.197Z,12.73
2023-02-16T13:45:24.164Z,12.60
2023-02-16T13:47:54.084Z,12.97
2023-02-16T13:50:32.784Z,13.15
2023-02-16T13:53:17.080Z,13.13
2023-02-16T13:55:49.644Z,13.65
2023-02-16T13:58:32.695Z,13.40
2023-02-16T14:01:39.704Z,13.20
2023-02-16T14:04:13.762Z,13.45
2023-02-16T14:06:42.981Z,14.05
2023-02-16T14:09:48.772Z,13.77
2023-02-16T14:12:23.439Z,12.80
2023-02-16T14:15:02.598Z,12.90
2023-02-16T14:17:34.554Z,14.50
2023-02-16T14:20:05.864Z,14.20
2023-02-16T14:22:48.664Z,14.30
2023-02-16T14:25:35.111Z,13.43
2023-02-16T14:28:05.640Z,14.25
2023-02-16T14:30:37.272Z,14.73
2023-02-16T14:33:17.623Z,15.30
2023-02-16T14:35:48.770Z,15.15
2023-02-16T14:38:23.160Z,14.30
2023-02-16T14:40:55.478Z,14.90
2023-02-16T14:43:32.451Z,14.70
2023-02-16T14:46:26.069Z,13.07
2023-02-16T14:49:44.230Z,14.37
2023-02-16T14:52:37.068Z,15.40
2023-02-16T14:55:44.534Z,14.77
2023-02-16T14:58:23.827Z,14.20
2023-02-16T15:00:56.950Z,14.23
2023-02-16T15:03:28.011Z,13.93
2023-02-16T15:06:00.083Z,14.70
2023-02-16T15:08:35.099Z,14.30
2023-02-16T15:11:14.202Z,15.15
2023-02-16T15:13:43.910Z,14.23
2023-02-16T15:16:15.383Z,15.15
2023-02-16T15:18:47.710Z,15.57
2023-02-16T15:21:21.528Z,14.13
2023-02-16T15:23:51.831Z,15.68
2023-02-16T15:26:22.802Z,14.13
2023-02-16T15:28:56.192Z,14.77
2023-02-16T15:31:31.004Z,14.25
2023-02-16T15:34:01.751Z,13.90
2023-02-16T15:36:36.432Z,14.15
2023-02-16T15:39:10.256Z,14.10
2023-02-16T15:41:40.835Z,13.18
2023-02-16T15:44:29.435Z,14.35
2023-02-16T15:47:08.527Z,14.80
2023-02-16T15:49:39.020Z,14.07
2023-02-16T15:52:14.647Z,14.35
2023-02-16T15:54:43.405Z,15.07
2023-02-16T15:57:19.828Z,15.93
2023-02-16T15:59:51.037Z,15.23
2023-02-16T16:02:22.845Z,14.57
2023-02-16T16:04:54.975Z,15.52
2023-02-16T16:07:28.649Z,13.90
2023-02-16T16:09:57.910Z,13.98
2023-02-16T16:12:26.878Z,15.32
2023-02-16T16:14:57.587Z,14.60
2023-02-16T16:17:29.919Z,15.27
2023-02-16T16:19:59.101Z,13.95
2023-02-16T16:22:35.743Z,13.90
2023-02-16T16:25:27.865Z,13.57
2023-02-16T16:27:56.804Z,13.50
2023-02-16T16:30:30.714Z,13.60
2023-02-16T16:33:04.331Z,13.10
2023-02-16T16:35:38.967Z,13.60
2023-02-16T16:38:22.446Z,12.90
2023-02-16T16:40:52.606Z,14.02
2023-02-16T16:43:21.996Z,12.50
2023-02-16T16:45:56.629Z,13.43
2023-02-16T16:48:27.446Z,12.57
2023-02-16T16:51:11.811Z,13.27
2023-02-16T16:53:45.185Z,13.10
2023-02-16T16:56:14.836Z,12.53
2023-02-16T16:58:43.879Z,12.73
2023-02-16T17:01:14.389Z,12.50
2023-02-16T17:03:43.005Z,12.18
2023-02-16T17:06:11.510Z,12.68
2023-02-16T17:08:41.947Z,13.02
2023-02-16T17:11:15.160Z,12.30
2023-02-16T17:13:43.482Z,12.48
2023-02-16T17:16:15.413Z,11.50
2023-02-16T17:18:43.646Z,12.30
2023-02-16T17:21:14.269Z,11.80
2023-02-16T17:23:52.599Z,12.68
2023-02-16T17:26:22.033Z,11.40
2023-02-16T17:28:50.954Z,11.70
2023-02-16T17:31:19.366Z,12.10
2023-02-16T17:33:47.651Z,11.95
2023-02-16T17:36:17.068Z,12.52
2023-02-16T17:38:46.816Z,11.95
2023-02-16T17:41:21.216Z,11.10
2023-02-16T17:43:49.789Z,11.80
2023-02-16T17:46:19.084Z,11.75
2023-02-16T17:48:54.961Z,12.93
2023-02-16T17:51:25.400Z,15.68
2023-02-16T17:53:55.673Z,15.05
2023-02-16T17:56:25.118Z,13.05
2023-02-16T17:58:53.677Z,17.80
2023-02-16T18:01:22.743Z,16.83
2023-02-16T18:03:52.371Z,16.48
2023-02-16T18:06:25.056Z,16.75
2023-02-16T18:08:55.578Z,13.15
2023-02-16T18:11:23.798Z,12.40
2023-02-16T18:13:52.018Z,14.73
2023-02-16T18:16:22.177Z,11.27
2023-02-16T18:18:50.454Z,10.93
2023-02-16T18:21:18.790Z,11.02
2023-02-16T18:23:47.224Z,9.80
2023-02-16T18:26:18.065Z,8.90
2023-02-16T18:28:46.429Z,8.30
2023-02-16T18:31:15.411Z,8.40
2023-02-16T18:33:44.014Z,7.50
2023-02-16T18:36:12.232Z,8.02
2023-02-16T18:38:40.746Z,7.45
2023-02-16T18:41:09.353Z,8.32
2023-02-16T18:43:38.981Z,8.00
2023-02-16T18:46:08.296Z,7.60
2023-02-16T18:48:37.019Z,8.32
2023-02-16T18:51:06.051Z,8.75
2023-02-16T18:53:34.346Z,7.70
2023-02-16T18:56:02.780Z,8.10
2023-02-16T18:58:31.325Z,8.30
2023-02-16T19:01:01.173Z,7.47
2023-02-16T19:03:30.388Z,7.00
2023-02-16T19:05:58.787Z,7.75
2023-02-16T19:08:27.056Z,7.40
2023-02-16T19:10:55.312Z,5.55
2023-02-16T19:13:23.534Z,5.15
2023-02-16T19:15:51.803Z,5.40
2023-02-16T19:18:21.475Z,5.05
2023-02-16T19:20:49.631Z,5.72
2023-02-16T19:23:18.064Z,5.35
2023-02-16T19:25:46.341Z,5.65
2023-02-16T19:28:14.610Z,5.38
2023-02-16T19:30:42.912Z,5.63
2023-02-16T19:33:11.170Z,5.93
2023-02-16T19:35:40.861Z,5.75
2023-02-16T19:38:09.040Z,6.30
2023-02-16T19:40:37.359Z,6.25
2023-02-16T19:43:05.899Z,6.70
2023-02-16T19:45:41.248Z,7.13
2023-02-16T19:48:09.646Z,6.80
2023-02-16T19:50:37.817Z,6.70
2023-02-16T19:53:07.478Z,7.28
2023-02-16T19:55:35.810Z,7.00
2023-02-16T19:58:03.999Z,7.40
2023-02-16T20:00:32.988Z,7.30
2023-02-16T20:03:02.153Z,7.23
2023-02-16T20:05:30.520Z,8.13
2023-02-16T20:07:58.855Z,7.47
2023-02-16T20:10:30.128Z,7.97
2023-02-16T20:12:58.405Z,8.50
2023-02-16T20:15:26.994Z,7.82
2023-02-16T20:17:55.848Z,7.90
2023-02-16T20:20:24.264Z,8.32
2023-02-16T20:22:52.478Z,8.93
2023-02-16T20:25:20.984Z,7.70
2023-02-16T20:27:50.637Z,8.13
2023-02-16T20:30:24.275Z,8.50
2023-02-16T20:32:52.597Z,8.25
2023-02-16T20:35:20.867Z,9.10
2023-02-16T20:37:49.106Z,9.45
2023-02-16T20:40:20.334Z,8.48
2023-02-16T20:42:50.201Z,11.05
2023-02-16T20:45:18.465Z,12.27
2023-02-16T20:47:46.728Z,10.10
2023-02-16T20:50:15.369Z,9.10
2023-02-16T20:52:43.697Z,9.43
2023-02-16T20:55:12.171Z,11.15
2023-02-16T20:57:40.455Z,10.60
2023-02-16T21:00:16.930Z,10.77
2023-02-16T21:02:45.202Z,11.13
2023-02-16T21:05:13.585Z,11.23
2023-02-16T21:07:41.885Z,10.57
2023-02-16T21:10:11.871Z,9.50
2023-02-16T21:12:40.080Z,9.75
2023-02-16T21:15:10.769Z,10.00
2023-02-16T21:17:39.426Z,8.67
2023-02-16T21:20:08.902Z,9.23
2023-02-16T21:22:37.410Z,9.32
2023-02-16T21:25:06.310Z,10.20
2023-02-16T21:27:34.676Z,10.30
2023-02-16T21:30:03.094Z,10.50
2023-02-16T21:32:32.781Z,10.90
2023-02-16T21:35:01.018Z,10.50
2023-02-16T21:37:29.296Z,12.13
2023-02-16T21:40:14.760Z,10.98
2023-02-16T21:42:43.136Z,11.73
2023-02-16T21:45:14.207Z,11.23
2023-02-16T21:48:02.871Z,11.27
2023-02-16T21:50:32.169Z,11.73
2023-02-16T21:53:00.596Z,11.57
2023-02-16T21:55:46.352Z,11.23
2023-02-16T21:58:14.594Z,11.98
2023-02-16T22:00:43.775Z,12.05
2023-02-16T22:03:14.174Z,10.73
2023-02-16T22:05:42.419Z,12.23
2023-02-16T22:08:12.624Z,11.77
2023-02-16T22:10:42.462Z,12.00
2023-02-16T22:13:10.782Z,12.33
2023-02-16T22:15:39.284Z,12.25
2023-02-16T22:18:07.676Z,10.90
2023-02-16T22:20:37.302Z,11.43
2023-02-16T22:23:05.723Z,11.85
2023-02-16T22:25:34.173Z,10.90
2023-02-16T22:28:02.448Z,12.10
2023-02-16T22:30:30.732Z,11.45
2023-02-16T22:32:58.971Z,11.80
2023-02-16T22:35:27.215Z,12.20
2023-02-16T22:37:56.901Z,11.30
2023-02-16T22:40:25.090Z,11.68
2023-02-16T22:42:53.283Z,12.48
2023-02-16T22:45:21.644Z,11.77
2023-02-16T22:47:49.962Z,12.30
2023-02-16T22:50:18.451Z,13.73
2023-02-16T22:52:46.790Z,13.27
2023-02-16T22:55:16.433Z,12.38
2023-02-16T22:57:44.791Z,13.68
2023-02-16T23:00:17.400Z,12.75
2023-02-16T23:02:45.611Z,13.27
2023-02-16T23:05:13.866Z,13.20
2023-02-16T23:07:42.082Z,13.35
2023-02-16T23:10:10.888Z,12.77
2023-02-16T23:12:40.520Z,13.52
2023-02-16T23:15:09.467Z,13.50
2023-02-16T23:17:37.674Z,12.80
2023-02-16T23:20:07.312Z,12.55
2023-02-16T23:22:35.607Z,12.63
2023-02-16T23:25:21.749Z,13.10
2023-02-16T23:27:52.964Z,12.70
2023-02-16T23:30:21.331Z,12.75
2023-02-16T23:32:49.663Z,12.30
2023-02-16T23:35:18.104Z,11.48
2023-02-16T23:37:47.711Z,12.17
2023-02-16T23:40:16.081Z,12.52
2023-02-16T23:42:44.213Z,12.38
2023-02-16T23:45:13.803Z,12.60
2023-02-16T23:47:42.093Z,12.50
2023-02-16T23:50:10.649Z,13.95
2023-02-16T23:52:40.820Z,11.52
2023-02-16T23:55:09.649Z,12.13
2023-02-16T23:57:37.800Z,12.85
